Time;durP1;ratioP1;P1;durP2;ratioP2;P2;SDS_P1;SDS_P2;PMS_P1;PMS_P2;Temp;Humidity;BMP_temperature;BMP_pressure;BME280_temperature;BME280_humidity;BME280_pressure;Samples;Min_cycle;Max_cycle;Signal;HPM_P1;HPM_P2
2023/04/07 00:02:16;;;;;;;11.97;8.80;;;8.60;1.00;;;;;;5058601;28;20701;-72
2023/04/07 00:04:41;;;;;;;14.53;10.27;;;8.50;1.00;;;;;;5058189;28;20779;-72
2023/04/07 00:07:07;;;;;;;13.13;8.50;;;9.00;1.00;;;;;;5058108;28;20605;-71
2023/04/07 00:09:34;;;;;;;14.53;8.77;;;8.50;1.00;;;;;;5054694;28;20189;-72
2023/04/07 00:12:03;;;;;;;12.60;8.50;;;8.50;1.00;;;;;;5055072;28;20520;-71
2023/04/07 00:14:28;;;;;;;14.87;9.20;;;8.50;1.00;;;;;;5048583;28;21040;-72
2023/04/07 00:16:54;;;;;;;12.10;8.70;;;8.50;1.00;;;;;;5058533;28;20459;-72
2023/04/07 00:19:19;;;;;;;12.43;8.83;;;9.00;1.00;;;;;;5048549;28;20234;-72
2023/04/07 00:21:45;;;;;;;14.57;9.70;;;9.30;1.00;;;;;;5047493;28;20185;-71
2023/04/07 00:24:11;;;;;;;12.73;9.33;;;8.90;1.00;;;;;;5051591;28;20370;-72
2023/04/07 00:26:36;;;;;;;12.83;9.47;;;8.50;1.00;;;;;;5058504;28;20189;-72
2023/04/07 00:29:02;;;;;;;15.13;9.60;;;8.50;1.00;;;;;;5062797;28;20272;-72
2023/04/07 00:31:28;;;;;;;13.93;9.47;;;8.50;1.00;;;;;;5046227;28;20206;-73
2023/04/07 00:37:15;;;;;;;14.17;9.27;;;8.50;1.00;;;;;;5057002;28;20403;-72
2023/04/07 00:39:41;;;;;;;13.20;9.17;;;8.50;1.00;;;;;;5048580;28;20431;-72
2023/04/07 00:42:06;;;;;;;11.97;8.90;;;8.60;1.00;;;;;;5047351;28;20193;-72
2023/04/07 00:44:33;;;;;;;13.43;8.63;;;8.40;1.00;;;;;;5049848;28;20690;-72
2023/04/07 00:46:59;;;;;;;13.67;9.57;;;8.50;1.00;;;;;;5048749;28;20173;-71
2023/04/07 00:49:27;;;;;;;12.80;9.43;;;8.50;1.00;;;;;;5059106;28;20437;-72
2023/04/07 00:51:53;;;;;;;12.53;9.03;;;8.50;1.00;;;;;;5064142;28;20431;-72
2023/04/07 00:54:20;;;;;;;12.13;9.20;;;8.50;1.00;;;;;;5047905;28;20452;-72
2023/04/07 00:56:46;;;;;;;14.67;9.20;;;8.50;1.00;;;;;;5054643;28;20455;-72
2023/04/07 00:59:11;;;;;;;13.10;9.00;;;8.50;1.00;;;;;;5063253;28;21014;-73
2023/04/07 01:02:02;;;;;;;16.50;10.03;;;9.20;1.00;;;;;;5054140;28;20192;-72
2023/04/07 01:04:32;;;;;;;13.03;8.77;;;8.50;1.00;;;;;;5054659;28;20635;-72
2023/04/07 01:07:05;;;;;;;12.20;9.50;;;8.50;1.00;;;;;;5048503;28;20440;-72
2023/04/07 01:09:46;;;;;;;11.80;9.17;;;8.50;1.00;;;;;;5048249;28;20981;-72
2023/04/07 01:12:21;;;;;;;12.80;9.10;;;8.50;1.00;;;;;;5055027;28;20471;-72
2023/04/07 01:14:53;;;;;;;17.20;10.00;;;8.50;1.00;;;;;;5053922;28;20462;-72
2023/04/07 01:17:22;;;;;;;11.70;8.43;;;8.50;1.00;;;;;;5065979;28;20471;-72
2023/04/07 01:19:57;;;;;;;17.63;9.77;;;8.70;1.00;;;;;;5049166;28;20438;-72
2023/04/07 01:22:33;;;;;;;13.97;9.70;;;8.60;1.00;;;;;;5049858;28;20423;-72
2023/04/07 01:25:22;;;;;;;15.13;9.70;;;8.50;1.00;;;;;;5048013;28;20965;-70
2023/04/07 01:28:09;;;;;;;14.80;10.10;;;8.50;1.00;;;;;;5062913;28;20901;-72
2023/04/07 01:30:40;;;;;;;14.23;9.33;;;8.50;1.00;;;;;;5047061;28;20517;-73
2023/04/07 01:33:07;;;;;;;15.17;9.70;;;8.50;1.00;;;;;;5053482;28;20440;-71
2023/04/07 01:35:34;;;;;;;15.60;9.10;;;8.50;1.00;;;;;;5059890;28;20463;-72
2023/04/07 01:38:02;;;;;;;13.83;8.70;;;8.50;1.00;;;;;;5049768;28;20434;-71
2023/04/07 01:40:29;;;;;;;15.27;8.80;;;8.60;1.00;;;;;;5052858;28;20872;-72
2023/04/07 01:42:56;;;;;;;13.00;10.00;;;8.50;1.00;;;;;;5058339;28;20456;-72
2023/04/07 01:45:23;;;;;;;13.97;9.67;;;8.60;1.00;;;;;;5068370;28;20446;-72
2023/04/07 01:47:49;;;;;;;13.67;9.17;;;8.60;1.00;;;;;;5052845;28;20439;-72
2023/04/07 01:50:15;;;;;;;19.10;9.33;;;9.10;1.00;;;;;;5058630;28;20462;-72
2023/04/07 01:52:42;;;;;;;13.07;9.37;;;8.50;1.00;;;;;;5046963;28;20470;-72
2023/04/07 01:55:08;;;;;;;17.80;9.80;;;8.50;1.00;;;;;;5046774;28;20462;-72
2023/04/07 01:57:34;;;;;;;15.37;9.47;;;8.60;1.00;;;;;;5064295;28;20488;-72
2023/04/07 02:00:00;;;;;;;14.83;9.50;;;10.80;1.00;;;;;;5062121;28;20439;-72
2023/04/07 02:02:27;;;;;;;12.57;9.60;;;7.20;1.00;;;;;;5052997;28;20314;-72
2023/04/07 02:04:59;;;;;;;13.00;8.63;;;8.60;1.00;;;;;;5058353;28;20201;-72
2023/04/07 02:07:30;;;;;;;12.70;8.93;;;8.60;1.00;;;;;;5047583;28;20462;-71
2023/04/07 02:10:01;;;;;;;12.37;8.93;;;8.60;1.00;;;;;;5051944;28;20466;-71
2023/04/07 02:12:28;;;;;;;12.90;9.20;;;8.70;1.00;;;;;;5039584;28;20428;-72
2023/04/07 02:14:55;;;;;;;12.60;9.20;;;8.70;1.00;;;;;;5052980;28;21160;-72
2023/04/07 02:17:23;;;;;;;12.87;9.27;;;8.80;1.00;;;;;;5047693;28;20995;-72
2023/04/07 02:19:52;;;;;;;14.07;9.87;;;8.80;1.00;;;;;;5048202;28;20467;-72
2023/04/07 02:22:17;;;;;;;12.90;9.47;;;8.80;1.00;;;;;;5043029;28;20468;-72
2023/04/07 02:24:43;;;;;;;13.10;9.70;;;8.80;1.00;;;;;;5047099;28;20459;-73
2023/04/07 02:27:09;;;;;;;14.23;9.93;;;8.70;1.00;;;;;;5048905;28;20268;-71
2023/04/07 02:29:34;;;;;;;14.87;9.50;;;8.70;1.00;;;;;;5064151;28;20188;-72
2023/04/07 02:32:00;;;;;;;15.03;9.97;;;8.70;1.00;;;;;;5059520;28;20204;-72
2023/04/07 02:34:25;;;;;;;12.27;9.33;;;8.60;1.00;;;;;;5056271;28;20219;-71
2023/04/07 02:36:51;;;;;;;13.93;9.30;;;8.70;1.00;;;;;;5047961;28;20188;-72
2023/04/07 02:39:16;;;;;;;13.90;9.37;;;8.70;1.00;;;;;;5052222;28;20797;-72
2023/04/07 02:41:42;;;;;;;16.70;9.80;;;8.70;1.00;;;;;;5054085;28;20674;-72
2023/04/07 02:44:08;;;;;;;16.70;10.10;;;8.70;1.00;;;;;;5055693;28;20211;-71
2023/04/07 02:46:33;;;;;;;15.20;9.50;;;8.70;1.00;;;;;;5045040;28;20190;-72
2023/04/07 02:48:59;;;;;;;15.10;10.03;;;8.70;1.00;;;;;;5047923;28;20246;-72
2023/04/07 02:51:25;;;;;;;17.33;9.47;;;8.70;1.00;;;;;;5053304;28;20214;-72
2023/04/07 02:53:51;;;;;;;13.40;10.10;;;8.70;1.00;;;;;;5047482;28;20239;-72
2023/04/07 02:56:17;;;;;;;14.73;9.13;;;8.70;1.00;;;;;;5048201;28;20976;-72
2023/04/07 02:58:42;;;;;;;13.80;9.47;;;10.30;1.00;;;;;;5062443;28;20185;-72
2023/04/07 03:01:08;;;;;;;13.00;9.00;;;8.80;1.00;;;;;;5054574;28;20563;-72
2023/04/07 03:03:33;;;;;;;14.13;9.70;;;8.80;1.00;;;;;;5059278;28;20188;-72
2023/04/07 03:05:59;;;;;;;13.13;9.00;;;8.80;1.00;;;;;;5059112;28;20181;-72
2023/04/07 03:08:26;;;;;;;12.67;9.50;;;8.90;1.00;;;;;;5047331;28;20663;-72
2023/04/07 03:10:51;;;;;;;13.17;9.47;;;8.80;1.00;;;;;;5047303;28;20692;-72
2023/04/07 03:13:18;;;;;;;15.37;9.90;;;8.70;1.00;;;;;;5055779;28;20475;-73
2023/04/07 03:15:44;;;;;;;15.20;10.10;;;8.80;1.00;;;;;;5050856;28;20209;-72
2023/04/07 03:18:10;;;;;;;15.93;10.00;;;8.80;1.00;;;;;;5047753;28;20597;-72
2023/04/07 03:20:36;;;;;;;15.37;10.20;;;8.80;1.00;;;;;;5062542;28;20591;-72
2023/04/07 03:23:02;;;;;;;13.93;10.07;;;8.80;1.00;;;;;;5046520;28;20443;-72
2023/04/07 03:25:28;;;;;;;14.13;9.50;;;8.90;1.00;;;;;;5047737;28;20865;-73
2023/04/07 03:27:53;;;;;;;14.50;10.23;;;8.90;1.00;;;;;;5051206;28;20280;-72
2023/04/07 03:30:19;;;;;;;12.97;9.40;;;9.00;1.00;;;;;;5049508;28;20227;-71
2023/04/07 03:32:45;;;;;;;15.30;9.57;;;9.20;1.00;;;;;;5051111;28;20192;-72
2023/04/07 03:35:10;;;;;;;14.07;9.07;;;9.00;1.00;;;;;;5050328;28;20213;-71
2023/04/07 03:37:36;;;;;;;13.80;10.20;;;9.00;1.00;;;;;;5050427;28;20185;-72
2023/04/07 03:40:02;;;;;;;14.00;9.20;;;9.00;1.00;;;;;;5051152;28;20196;-73
2023/04/07 03:42:27;;;;;;;14.53;9.87;;;9.00;1.00;;;;;;5049905;28;20276;-73
2023/04/07 03:44:53;;;;;;;15.40;9.53;;;9.00;1.00;;;;;;5050838;28;20742;-71
2023/04/07 03:47:18;;;;;;;12.07;8.57;;;8.90;1.00;;;;;;5050451;28;20189;-72
2023/04/07 03:49:44;;;;;;;11.63;8.50;;;8.90;1.00;;;;;;5050939;28;20212;-71
2023/04/07 03:52:10;;;;;;;16.80;9.50;;;8.90;1.00;;;;;;5047506;28;20223;-71
2023/04/07 03:54:35;;;;;;;13.50;9.70;;;8.90;1.00;;;;;;5055191;28;20247;-71
2023/04/07 03:57:01;;;;;;;14.03;9.73;;;8.90;1.00;;;;;;5050951;28;20651;-71
2023/04/07 03:59:27;;;;;;;13.40;9.23;;;8.90;1.00;;;;;;5050605;28;20189;-72
2023/04/07 04:01:53;;;;;;;13.87;9.13;;;8.90;1.00;;;;;;5050493;28;20965;-72
2023/04/07 04:04:18;;;;;;;13.70;9.20;;;8.90;1.00;;;;;;5050678;28;20215;-71
2023/04/07 04:06:44;;;;;;;12.97;9.57;;;8.90;1.00;;;;;;5063424;28;20203;-71
2023/04/07 04:09:10;;;;;;;15.07;10.00;;;8.90;1.00;;;;;;5066391;28;21412;-70
2023/04/07 04:11:36;;;;;;;13.43;8.90;;;8.90;1.00;;;;;;5049993;28;20204;-72
2023/04/07 04:14:01;;;;;;;13.10;9.50;;;8.90;1.00;;;;;;5050548;28;20205;-72
2023/04/07 04:16:27;;;;;;;18.10;9.97;;;8.90;1.00;;;;;;5050097;28;20275;-71
2023/04/07 04:18:53;;;;;;;14.37;9.33;;;8.90;1.00;;;;;;5050028;28;20177;-71
2023/04/07 04:21:18;;;;;;;13.03;9.30;;;9.00;1.00;;;;;;5050148;28;20285;-71
2023/04/07 04:23:44;;;;;;;19.00;10.00;;;8.90;1.00;;;;;;5046484;28;20192;-72
2023/04/07 04:26:09;;;;;;;16.30;9.73;;;8.90;1.00;;;;;;5056507;28;20214;-70
2023/04/07 04:28:35;;;;;;;13.30;9.60;;;8.80;1.00;;;;;;5057339;28;20177;-71
2023/04/07 04:31:01;;;;;;;14.13;9.90;;;8.90;1.00;;;;;;5065395;28;20216;-72
2023/04/07 04:33:26;;;;;;;13.33;9.10;;;8.90;1.00;;;;;;5062427;28;20177;-71
2023/04/07 04:35:52;;;;;;;13.73;9.97;;;9.00;1.00;;;;;;5043379;28;20202;-72
2023/04/07 04:38:18;;;;;;;13.97;9.37;;;9.00;1.00;;;;;;5055367;28;20181;-71
2023/04/07 04:40:43;;;;;;;14.70;9.60;;;9.00;1.00;;;;;;5054798;28;20263;-72
2023/04/07 04:43:09;;;;;;;15.47;9.47;;;9.00;1.00;;;;;;5058858;28;20554;-71
2023/04/07 04:45:35;;;;;;;15.13;9.77;;;9.00;1.00;;;;;;5055356;28;20334;-72
2023/04/07 04:48:00;;;;;;;14.63;9.40;;;9.00;1.00;;;;;;5051836;28;20193;-72
2023/04/07 04:50:26;;;;;;;14.83;10.23;;;9.00;1.00;;;;;;5049363;28;20205;-72
2023/04/07 04:52:51;;;;;;;15.00;10.03;;;9.00;1.00;;;;;;5049554;28;20357;-72
2023/04/07 04:55:17;;;;;;;14.80;10.17;;;9.00;1.00;;;;;;5065977;28;20204;-71
2023/04/07 04:57:43;;;;;;;18.73;10.83;;;9.00;1.00;;;;;;5049733;28;20181;-72
2023/04/07 05:00:09;;;;;;;15.30;10.70;;;9.00;1.00;;;;;;5049418;28;20197;-71
2023/04/07 05:02:35;;;;;;;14.70;10.13;;;9.10;1.00;;;;;;5049333;28;20193;-72
2023/04/07 05:05:01;;;;;;;14.30;9.97;;;9.10;1.00;;;;;;5049287;28;20555;-72
2023/04/07 05:07:27;;;;;;;17.63;10.87;;;9.10;1.00;;;;;;5048770;28;20530;-71
2023/04/07 05:09:52;;;;;;;15.13;11.17;;;9.10;1.00;;;;;;5049247;28;20189;-71
2023/04/07 05:12:18;;;;;;;14.90;10.33;;;9.10;1.00;;;;;;5048790;28;20211;-71
2023/04/07 05:14:43;;;;;;;14.47;9.87;;;9.20;1.00;;;;;;5047308;28;20667;-71
2023/04/07 05:17:09;;;;;;;19.90;10.37;;;9.20;1.00;;;;;;5058045;28;20181;-71
2023/04/07 05:19:35;;;;;;;15.80;10.10;;;9.20;1.00;;;;;;5056451;28;20189;-71
2023/04/07 05:22:00;;;;;;;17.60;11.90;;;9.20;1.00;;;;;;5045614;28;20197;-71
2023/04/07 05:24:27;;;;;;;15.57;10.30;;;9.20;1.00;;;;;;5046799;28;20213;-71
2023/04/07 05:26:53;;;;;;;15.67;10.80;;;9.20;1.00;;;;;;5047863;28;20188;-71
2023/04/07 05:29:19;;;;;;;19.57;13.40;;;9.10;1.00;;;;;;5057842;28;20431;-71
2023/04/07 05:31:44;;;;;;;21.70;14.20;;;9.00;1.00;;;;;;5047410;28;20575;-71
2023/04/07 05:34:10;;;;;;;20.60;12.70;;;8.90;1.00;;;;;;5045476;28;20271;-72
2023/04/07 05:36:36;;;;;;;23.63;13.80;;;8.80;1.00;;;;;;5048403;28;20266;-72
2023/04/07 05:39:01;;;;;;;20.33;13.20;;;8.70;1.00;;;;;;5048920;28;20177;-72
2023/04/07 05:41:27;;;;;;;15.67;11.90;;;8.70;1.00;;;;;;5047663;28;20192;-72
2023/04/07 05:43:52;;;;;;;16.97;11.90;;;8.70;1.00;;;;;;5048447;28;20197;-71
2023/04/07 05:46:18;;;;;;;21.00;12.40;;;8.60;1.00;;;;;;5045937;28;20272;-71
2023/04/07 05:48:43;;;;;;;20.80;12.90;;;8.50;1.00;;;;;;5048888;28;20215;-72
2023/04/07 05:51:09;;;;;;;17.63;12.20;;;8.50;1.00;;;;;;5048286;28;20262;-72
2023/04/07 05:53:35;;;;;;;19.13;12.90;;;8.50;1.00;;;;;;5047893;28;20335;-72
2023/04/07 05:56:00;;;;;;;17.17;12.30;;;8.50;1.00;;;;;;5051744;28;20196;-75
2023/04/07 05:58:26;;;;;;;19.93;11.73;;;8.50;1.00;;;;;;5044370;28;20192;-72
2023/04/07 06:00:52;;;;;;;19.67;12.20;;;8.60;1.00;;;;;;5043700;28;20250;-71
2023/04/07 06:03:18;;;;;;;18.77;11.50;;;8.70;1.00;;;;;;5047779;28;20515;-71
2023/04/07 06:05:45;;;;;;;17.17;11.80;;;8.80;1.00;;;;;;5046841;28;20216;-72
2023/04/07 06:08:11;;;;;;;18.67;12.73;;;9.00;1.00;;;;;;5046520;28;20310;-72
2023/04/07 06:10:36;;;;;;;17.30;11.50;;;9.10;1.00;;;;;;5051658;28;20538;-72
2023/04/07 06:13:02;;;;;;;19.30;12.70;;;9.30;1.00;;;;;;5049406;28;20237;-72
2023/04/07 06:15:27;;;;;;;17.60;12.98;;;9.40;1.00;;;;;;5044130;28;20474;-71
2023/04/07 06:17:53;;;;;;;16.37;11.80;;;9.60;1.00;;;;;;5049898;28;20656;-72
2023/04/07 06:20:20;;;;;;;20.13;12.30;;;9.90;1.00;;;;;;5048552;28;20272;-71
2023/04/07 06:22:46;;;;;;;17.03;11.37;;;10.10;1.00;;;;;;5042272;28;20679;-72
2023/04/07 06:25:12;;;;;;;14.87;10.97;;;10.50;1.00;;;;;;5046812;28;20487;-72
2023/04/07 06:27:37;;;;;;;16.07;10.70;;;10.70;1.00;;;;;;5047633;28;20184;-72
2023/04/07 06:30:03;;;;;;;12.60;9.60;;;11.00;1.00;;;;;;5054582;28;20205;-72
2023/04/07 06:32:29;;;;;;;13.50;10.20;;;11.20;1.00;;;;;;5052514;28;20181;-71
2023/04/07 06:34:55;;;;;;;12.77;9.33;;;11.40;1.00;;;;;;5045662;28;20213;-72
2023/04/07 06:37:23;;;;;;;12.13;9.30;;;11.60;1.00;;;;;;5063214;28;20192;-71
2023/04/07 06:39:49;;;;;;;11.87;9.33;;;11.70;1.00;;;;;;5046376;28;20500;-71
2023/04/07 06:42:14;;;;;;;19.27;9.13;;;12.00;1.00;;;;;;5047214;28;20522;-72
2023/04/07 06:44:40;;;;;;;14.43;9.73;;;12.00;1.00;;;;;;5047003;28;20740;-71
2023/04/07 06:47:06;;;;;;;15.60;10.33;;;12.00;1.00;;;;;;5045463;28;20212;-73
2023/04/07 06:49:31;;;;;;;12.90;9.57;;;12.00;1.00;;;;;;5049369;28;20181;-73
2023/04/07 06:51:57;;;;;;;16.10;10.20;;;11.80;1.00;;;;;;5049070;28;20197;-73
2023/04/07 06:54:22;;;;;;;13.60;9.80;;;11.40;1.00;;;;;;5062806;28;20757;-73
2023/04/07 06:56:48;;;;;;;13.30;9.17;;;11.10;1.00;;;;;;5054875;28;20200;-73
2023/04/07 06:59:14;;;;;;;13.07;8.83;;;11.00;1.00;;;;;;5055083;28;20212;-73
2023/04/07 07:01:39;;;;;;;12.50;8.53;;;11.50;1.00;;;;;;5054598;28;20188;-73
2023/04/07 07:04:05;;;;;;;13.57;8.97;;;11.30;1.00;;;;;;5054917;28;20205;-73
2023/04/07 07:06:31;;;;;;;10.98;8.60;;;11.60;1.00;;;;;;5055230;28;20433;-73
2023/04/07 07:08:57;;;;;;;12.57;9.47;;;11.90;1.00;;;;;;5061176;28;20655;-72
2023/04/07 07:11:23;;;;;;;11.33;9.20;;;12.40;1.00;;;;;;5051278;28;20459;-72
2023/04/07 07:13:48;;;;;;;13.50;9.83;;;13.60;1.00;;;;;;5051583;28;20173;-73
2023/04/07 07:16:14;;;;;;;17.80;11.47;;;13.60;1.00;;;;;;5052098;28;20191;-72
2023/04/07 07:18:39;;;;;;;38.00;19.23;;;13.60;1.00;;;;;;5051528;28;20238;-72
2023/04/07 07:21:05;;;;;;;13.07;9.70;;;12.40;1.00;;;;;;5054179;28;20268;-73
2023/04/07 07:23:31;;;;;;;12.00;8.33;;;13.60;1.00;;;;;;5047559;28;20190;-73
2023/04/07 07:25:56;;;;;;;12.27;9.60;;;13.60;1.00;;;;;;5053666;28;20192;-73
2023/04/07 07:28:22;;;;;;;19.87;11.87;;;13.50;1.00;;;;;;5062063;28;20181;-73
2023/04/07 07:30:48;;;;;;;13.00;9.27;;;13.80;1.00;;;;;;5053709;28;20223;-73
2023/04/07 07:33:13;;;;;;;11.93;9.10;;;13.90;1.00;;;;;;5054181;28;20272;-73
2023/04/07 07:35:39;;;;;;;21.07;14.30;;;14.20;1.00;;;;;;5046037;28;20243;-73
2023/04/07 07:38:05;;;;;;;13.73;9.17;;;15.00;1.00;;;;;;5048352;28;20558;-73
2023/04/07 07:40:31;;;;;;;31.77;17.27;;;16.00;1.00;;;;;;5053738;28;20187;-73
2023/04/07 07:42:57;;;;;;;13.30;10.80;;;17.30;1.00;;;;;;5053763;28;20485;-74
2023/04/07 07:45:23;;;;;;;13.17;10.20;;;18.40;1.00;;;;;;5054981;28;20454;-73
2023/04/07 07:47:48;;;;;;;13.10;10.07;;;19.20;1.00;;;;;;5057512;28;20187;-73
2023/04/07 07:50:14;;;;;;;15.17;11.90;;;20.10;1.00;;;;;;5057437;28;20222;-73
2023/04/07 07:52:40;;;;;;;13.63;9.90;;;21.00;1.00;;;;;;5044315;28;20184;-73
2023/04/07 07:55:06;;;;;;;12.37;9.67;;;21.60;1.00;;;;;;5048703;28;20225;-73
2023/04/07 07:57:32;;;;;;;10.70;8.70;;;22.30;1.00;;;;;;5048723;28;20836;-75
2023/04/07 07:59:57;;;;;;;10.97;8.50;;;22.40;1.00;;;;;;5053178;28;20431;-75
2023/04/07 08:02:28;;;;;;;11.20;8.60;;;21.90;1.00;;;;;;5060883;28;20173;-73
2023/04/07 08:04:54;;;;;;;11.70;9.00;;;21.40;1.00;;;;;;5047256;28;20443;-74
2023/04/07 08:07:20;;;;;;;10.83;8.03;;;21.70;1.00;;;;;;5048378;28;20639;-74
2023/04/07 08:09:46;;;;;;;12.50;9.37;;;21.40;1.00;;;;;;5050761;28;20603;-73
2023/04/07 08:12:11;;;;;;;13.00;9.77;;;20.40;1.00;;;;;;5055090;28;20427;-73
2023/04/07 08:14:37;;;;;;;13.37;9.17;;;20.50;1.00;;;;;;5069449;28;20208;-74
2023/04/07 08:17:02;;;;;;;12.37;9.73;;;20.60;1.00;;;;;;5062333;28;20222;-73
2023/04/07 08:19:28;;;;;;;13.00;9.27;;;21.40;1.00;;;;;;5053329;28;20184;-73
2023/04/07 08:21:54;;;;;;;15.27;9.63;;;22.00;1.00;;;;;;5048850;28;20189;-74
2023/04/07 08:24:20;;;;;;;13.23;9.77;;;21.00;1.00;;;;;;5046250;28;20201;-74
2023/04/07 08:26:45;;;;;;;11.03;8.70;;;19.80;1.00;;;;;;5061655;28;20429;-74
2023/04/07 08:29:11;;;;;;;9.70;7.83;;;18.70;1.00;;;;;;5062489;28;20313;-74
2023/04/07 08:31:36;;;;;;;9.87;8.17;;;18.30;1.00;;;;;;5059821;28;20216;-73
2023/04/07 08:34:02;;;;;;;9.70;7.17;;;19.50;1.00;;;;;;5050311;28;20371;-73
2023/04/07 08:36:28;;;;;;;10.93;7.43;;;20.70;1.00;;;;;;5067423;28;20188;-73
2023/04/07 08:38:54;;;;;;;11.20;7.17;;;20.60;1.00;;;;;;5056082;28;20187;-73
2023/04/07 08:41:32;;;;;;;9.50;6.73;;;19.70;1.00;;;;;;5049953;28;20431;-74
2023/04/07 08:43:58;;;;;;;8.93;5.83;;;18.40;1.00;;;;;;5042683;28;20207;-72
2023/04/07 08:46:24;;;;;;;10.40;7.10;;;17.60;1.00;;;;;;5049628;28;20510;-71
2023/04/07 08:48:51;;;;;;;11.57;7.57;;;17.10;1.00;;;;;;5048539;28;20435;-73
2023/04/07 08:51:30;;;;;;;8.20;6.30;;;17.00;1.00;;;;;;5048911;28;20470;-70
2023/04/07 08:54:04;;;;;;;11.70;6.70;;;16.90;1.00;;;;;;5049549;28;20454;-73
2023/04/07 08:56:32;;;;;;;8.43;6.13;;;17.40;1.00;;;;;;5052130;28;21134;-72
2023/04/07 08:59:00;;;;;;;10.70;6.30;;;18.30;1.00;;;;;;5049647;28;20930;-73
2023/04/07 09:01:26;;;;;;;9.27;6.20;;;19.10;1.00;;;;;;5049403;28;20430;-72
2023/04/07 09:03:52;;;;;;;9.47;5.90;;;19.50;1.00;;;;;;5053477;28;20455;-72
2023/04/07 09:06:18;;;;;;;10.60;6.30;;;19.40;1.00;;;;;;5049717;28;20510;-73
2023/04/07 09:08:44;;;;;;;10.47;5.50;;;19.30;1.00;;;;;;5049051;28;20671;-73
2023/04/07 09:11:10;;;;;;;7.70;6.20;;;19.00;1.00;;;;;;5047831;28;20712;-73
2023/04/07 09:13:36;;;;;;;13.97;6.07;;;18.80;1.00;;;;;;5048633;28;20655;-72
2023/04/07 09:16:02;;;;;;;9.27;6.23;;;18.80;1.00;;;;;;5056637;28;20454;-73
2023/04/07 09:18:27;;;;;;;10.57;7.47;;;18.60;1.00;;;;;;5048822;28;20651;-73
2023/04/07 09:20:57;;;;;;;10.73;6.17;;;18.20;1.00;;;;;;5049148;28;20647;-73
2023/04/07 09:23:36;;;;;;;7.13;5.53;;;17.60;1.00;;;;;;5048700;28;20177;-73
2023/04/07 09:26:20;;;;;;;9.30;6.00;;;17.10;1.00;;;;;;5060849;28;20435;-73
2023/04/07 09:28:52;;;;;;;10.23;6.30;;;16.90;1.00;;;;;;5046853;28;20696;-73
2023/04/07 09:31:18;;;;;;;9.03;6.07;;;17.50;1.00;;;;;;5057520;28;20816;-73
2023/04/07 09:33:43;;;;;;;9.57;6.60;;;17.60;1.00;;;;;;5058695;28;20426;-73
2023/04/07 09:36:09;;;;;;;10.60;6.17;;;17.50;1.00;;;;;;5049874;28;20430;-73
2023/04/07 09:38:39;;;;;;;10.73;7.03;;;17.70;1.00;;;;;;5042209;28;20323;-73
2023/04/07 09:41:10;;;;;;;6.57;5.17;;;19.40;1.00;;;;;;5049442;28;20192;-73
2023/04/07 09:43:37;;;;;;;9.23;5.80;;;23.00;1.00;;;;;;5050545;28;20423;-72
2023/04/07 09:46:18;;;;;;;7.93;5.20;;;23.00;1.00;;;;;;5059941;28;20935;-73
2023/04/07 09:48:45;;;;;;;8.90;5.40;;;24.80;1.00;;;;;;5049052;28;20497;-73
2023/04/07 09:51:13;;;;;;;9.60;5.97;;;24.60;1.00;;;;;;5057577;28;20457;-73
2023/04/07 09:53:46;;;;;;;8.10;5.60;;;21.70;1.00;;;;;;5041748;28;20466;-73
2023/04/07 09:56:16;;;;;;;9.50;6.83;;;21.60;1.00;;;;;;5048360;28;20431;-73
2023/04/07 09:58:46;;;;;;;9.13;6.43;;;20.80;1.00;;;;;;5047027;28;20466;-73
2023/04/07 10:01:13;;;;;;;10.10;6.90;;;20.30;1.00;;;;;;5047692;28;20427;-73
2023/04/07 10:03:39;;;;;;;10.60;6.50;;;21.40;1.00;;;;;;5048973;28;20917;-73
2023/04/07 10:06:05;;;;;;;10.63;7.00;;;21.50;1.00;;;;;;5054537;28;20839;-73
2023/04/07 10:08:33;;;;;;;11.20;6.60;;;22.60;1.00;;;;;;5046277;28;20415;-73
2023/04/07 10:11:03;;;;;;;10.07;7.10;;;23.80;1.00;;;;;;5044472;28;20455;-74
2023/04/07 10:13:30;;;;;;;11.10;6.70;;;24.90;1.00;;;;;;5043434;28;20420;-75
2023/04/07 10:15:57;;;;;;;8.70;6.33;;;24.60;1.00;;;;;;5044465;28;20464;-75
2023/04/07 10:18:29;;;;;;;8.10;6.57;;;23.20;1.00;;;;;;5049420;28;20453;-75
2023/04/07 10:20:55;;;;;;;10.37;7.20;;;22.40;1.00;;;;;;5047664;28;20427;-74
2023/04/07 10:23:26;;;;;;;12.50;7.67;;;21.80;1.00;;;;;;5045638;28;20445;-75
2023/04/07 10:25:55;;;;;;;12.97;7.50;;;21.70;1.00;;;;;;5048864;28;20945;-75
2023/04/07 10:28:23;;;;;;;13.53;7.10;;;21.70;1.00;;;;;;5054896;28;20452;-75
2023/04/07 10:30:49;;;;;;;10.10;7.33;;;20.90;1.00;;;;;;5044942;28;21206;-74
2023/04/07 10:33:15;;;;;;;8.50;5.33;;;20.20;1.00;;;;;;5039366;28;20456;-74
2023/04/07 10:36:03;;;;;;;11.40;5.60;;;19.40;1.00;;;;;;5046489;28;20204;-74
2023/04/07 10:38:30;;;;;;;8.30;6.00;;;18.80;1.00;;;;;;5046735;28;20177;-75
2023/04/07 10:40:56;;;;;;;10.10;5.90;;;18.40;1.00;;;;;;5044857;28;21003;-74
2023/04/07 10:43:39;;;;;;;9.63;6.00;;;17.80;1.00;;;;;;5047921;28;20557;-75
2023/04/07 10:46:05;;;;;;;11.13;6.60;;;17.10;1.00;;;;;;5041522;28;20258;-74
2023/04/07 10:48:32;;;;;;;8.37;6.20;;;16.80;1.00;;;;;;5047660;28;20451;-73
2023/04/07 10:51:03;;;;;;;9.53;6.50;;;16.70;1.00;;;;;;5047478;28;20197;-71
2023/04/07 10:53:30;;;;;;;8.13;5.40;;;16.50;1.00;;;;;;5048493;28;20454;-73
2023/04/07 10:55:56;;;;;;;10.50;5.93;;;16.30;1.00;;;;;;5048999;28;20435;-74
2023/04/07 10:58:29;;;;;;;7.47;5.10;;;16.30;1.00;;;;;;5047789;28;20496;-74
2023/04/07 11:01:07;;;;;;;7.63;5.67;;;16.20;1.00;;;;;;5047708;28;20431;-73
2023/04/07 11:03:33;;;;;;;8.27;6.10;;;16.40;1.00;;;;;;5046195;28;20965;-74
2023/04/07 11:06:10;;;;;;;7.07;5.33;;;16.40;1.00;;;;;;5047788;28;20944;-74
2023/04/07 11:08:43;;;;;;;8.33;5.50;;;16.50;1.00;;;;;;5048598;28;20415;-73
2023/04/07 11:11:11;;;;;;;8.80;5.50;;;16.60;1.00;;;;;;5050162;28;20869;-75
2023/04/07 11:13:45;;;;;;;6.07;5.20;;;17.30;1.00;;;;;;5045724;28;20424;-74
2023/04/07 11:16:11;;;;;;;8.47;6.27;;;17.40;1.00;;;;;;5047641;28;20478;-75
2023/04/07 11:18:37;;;;;;;6.97;5.90;;;18.20;1.00;;;;;;5046104;28;20439;-74
2023/04/07 11:21:07;;;;;;;8.47;6.10;;;18.90;1.00;;;;;;5048717;28;20419;-74
2023/04/07 11:23:44;;;;;;;9.70;7.00;;;19.40;1.00;;;;;;5047722;28;20435;-74
2023/04/07 11:26:11;;;;;;;12.17;8.00;;;19.30;1.00;;;;;;5044031;28;20844;-78
2023/04/07 11:28:51;;;;;;;9.07;7.50;;;19.90;1.00;;;;;;5044087;28;20581;-75
2023/04/07 11:31:28;;;;;;;10.77;6.93;;;21.00;1.00;;;;;;5047092;28;20470;-74
2023/04/07 11:34:03;;;;;;;8.63;6.70;;;21.90;1.00;;;;;;5043729;28;20673;-74
2023/04/07 11:36:34;;;;;;;9.10;6.73;;;21.80;1.00;;;;;;5046906;28;20513;-74
2023/04/07 11:39:01;;;;;;;10.30;7.03;;;21.50;1.00;;;;;;5063063;28;20978;-74
2023/04/07 11:41:29;;;;;;;9.67;7.30;;;21.40;1.00;;;;;;5053657;28;20466;-74
2023/04/07 11:44:10;;;;;;;9.30;6.70;;;21.20;1.00;;;;;;5050352;28;20450;-74
2023/04/07 11:46:36;;;;;;;9.93;6.60;;;20.70;1.00;;;;;;5049417;28;20439;-73
2023/04/07 11:49:13;;;;;;;9.17;6.73;;;20.60;1.00;;;;;;5062748;28;20469;-74
2023/04/07 11:51:40;;;;;;;7.87;6.60;;;20.80;1.00;;;;;;5050522;28;20497;-74
2023/04/07 11:54:05;;;;;;;8.67;7.27;;;20.20;1.00;;;;;;5050427;28;20533;-74
2023/04/07 11:56:41;;;;;;;7.63;5.90;;;21.30;1.00;;;;;;5049151;28;20454;-74
2023/04/07 11:59:07;;;;;;;6.60;4.30;;;23.70;1.00;;;;;;5047745;28;20184;-74
2023/04/07 12:01:40;;;;;;;5.90;4.50;;;27.10;1.00;;;;;;5048562;28;20881;-75
2023/04/07 12:04:11;;;;;;;5.50;3.93;;;28.30;1.00;;;;;;5048064;28;20219;-74
2023/04/07 12:06:41;;;;;;;4.77;3.80;;;27.70;1.00;;;;;;5045345;28;20479;-74
2023/04/07 12:09:23;;;;;;;4.40;3.80;;;26.20;1.00;;;;;;5049969;28;20443;-75
2023/04/07 12:11:49;;;;;;;6.30;4.40;;;24.30;1.00;;;;;;5047440;28;20825;-74
2023/04/07 12:14:15;;;;;;;6.90;4.50;;;22.90;1.00;;;;;;5050471;28;20521;-74
2023/04/07 12:16:41;;;;;;;5.67;4.70;;;21.60;1.00;;;;;;5048706;28;20185;-73
2023/04/07 12:19:07;;;;;;;6.10;4.60;;;20.50;1.00;;;;;;5050272;28;20177;-74
2023/04/07 12:21:32;;;;;;;5.40;4.10;;;19.80;1.00;;;;;;5046612;28;20549;-74
2023/04/07 12:23:58;;;;;;;5.00;4.20;;;19.30;1.00;;;;;;5051283;28;20197;-75
2023/04/07 12:26:24;;;;;;;5.40;3.90;;;18.80;1.00;;;;;;5042412;28;20185;-75
2023/04/07 12:28:50;;;;;;;4.53;3.73;;;18.20;1.00;;;;;;5053038;28;20215;-76
2023/04/07 12:31:15;;;;;;;4.30;3.43;;;17.80;1.00;;;;;;5048673;28;20475;-76
2023/04/07 12:33:41;;;;;;;4.73;3.40;;;17.30;1.00;;;;;;5055579;28;20540;-75
2023/04/07 12:36:06;;;;;;;5.03;3.87;;;17.30;1.00;;;;;;5057942;28;20185;-75
2023/04/07 12:38:32;;;;;;;5.57;4.00;;;17.30;1.00;;;;;;5056421;28;20203;-75
2023/04/07 12:41:02;;;;;;;4.40;3.73;;;17.30;1.00;;;;;;5050222;28;20663;-73
2023/04/07 12:43:31;;;;;;;4.53;3.70;;;17.70;1.00;;;;;;5063809;28;20268;-74
2023/04/07 12:45:56;;;;;;;3.73;3.43;;;17.20;1.00;;;;;;5049971;28;20531;-75
2023/04/07 12:48:22;;;;;;;3.40;3.07;;;17.20;1.00;;;;;;5056287;28;20437;-76
2023/04/07 12:50:48;;;;;;;3.60;3.27;;;17.10;1.00;;;;;;5057476;28;20204;-76
2023/04/07 12:53:14;;;;;;;4.10;3.60;;;17.10;1.00;;;;;;5053960;28;20981;-76
2023/04/07 12:55:39;;;;;;;5.20;3.40;;;16.70;1.00;;;;;;5046535;28;20684;-75
2023/04/07 12:58:06;;;;;;;3.50;2.90;;;16.60;1.00;;;;;;5052284;28;20180;-75